Tomchick, Scott
United StatesManBorn 19652006 – 2026Runner id 47595
Events
55
2006 – 2026
Best pace
9.552
km/h · 2007
Best finish
7th
of 28 · 2008
Distance raced
4,060
km · splits not double-counted
Pace over time
km/h · higher is faster
Pace over time: 55 races from 2006 to 2026, ranging from 3.39 to 9.93 kilometres per hour, where higher is faster. A second, age-graded series is drawn above it; the gap between the two is the age credit.
- Actual pace
- Age-graded pace
Results
| Date | Event | Distance | Result | Pace km/h | Placing |
|---|---|---|---|---|---|
| 2006-03-18 | Chuckanut 50KUnited States | 50km | 6:31:02 h | 7.672 | 168/242 |
| 2006-09-16 | 50km | 6:34:02 h | 7.614 | 22/70 | |
| 2006-10-07 | Baker Lake 50K Ultra Trail RunUnited States | 50km | 5:55:59 h | 8.427 | 42/113 |
| 2006-11-11 | Ron Herzog 50KUnited States | 50km | 5:46:05 h | 8.668 | 17/32 |
| 2007-01-13 | Bridle Trails Winter Running FestivalUnited States | 50km | 5:14:29 h | 9.539 | 26/44 |
| 2007-02-04 | Port Gamble 50K RunUnited States | 50km | 5:41:00 h | 8.798 | 3/4 |
| 2007-03-17 | Chuckanut 50KUnited States | 50km | 7:04:24 h | 7.069 | 203/260 |
| 2007-04-22 | 50km | 5:14:05 h | 9.552 | 37/63 | |
| 2007-05-19 | Watershed Preserve 12 Hr Trail RaceUnited States | 12h | 84.812 km | 7.068 | 17/56 |
| 2007-06-09 | Lake Youngs UltraUnited States | 28.8mi | 5:43:00 h | 8.108 | 49/62 |
| 2007-07-28 | 50mi | 12:18:28 h | 6.538 | 133/144 | |
| 2007-09-15 | 50km | 7:07:49 h | 7.012 | 44/86 | |
| 2008-01-12 | Bridle Trails Winter Running FestivalUnited States | 50km | 5:53:55 h | 8.477 | 30/44 |
| 2008-03-15 | Chuckanut 50KUnited States | 50km | 6:08:14 h | 8.147 | 143/294 |
| 2008-05-17 | Watershed Preserve 12 Hr Trail RaceUnited States | 12h | 81.336 km | 6.778 | 21/53 |
| 2008-07-12 | 50km | 6:33:00 h | 7.634 | 7/28 | |
| 2008-07-26 | 50mi | 10:34:35 h | 7.608 | 106/202 | |
| 2008-08-23 | 100mi | 31:07:05 h | 5.172 | 70/77 | |
| 2009-03-21 | Chuckanut 50KUnited States | 50km | 5:31:14 h | 9.057 | 82/270 |
| 2009-04-25 | 50mi | 10:45:40 h | 7.478 | 26/43 | |
| 2009-07-25 | 50mi | 10:51:59 h | 7.405 | 98/166 | |
| 2009-09-12 | 50km | 7:36:36 h | 6.570 | 26/60 | |
| 2010-03-20 | 50km | 5:44:58 h | 8.696 | 145/287 | |
| 2010-04-25 | 50mi | 10:07:45 h | 7.944 | 49/88 | |
| 2010-09-11 | 100mi | 33:45:00 h | 4.768 | 9/11 | |
| 2011-03-06 | Lord Hill Trail RunUnited States | 50km | 5:56:59 h | 8.404 | 10/25 |
| 2011-04-30 | 50mi | 10:18:35 h | 7.805 | 51/82 | |
| 2011-07-08 | 100mi | 47:31:00 h | 3.387 | 78/80 | |
| 2012-01-28 | Bridle Trails Winter Running FestivalUnited States | 50km | 5:52:00 h | 8.523 | 25/46 |
| 2012-03-25 | 50km | 6:00:18 h | 8.326 | 112/211 | |
| 2013-01-13 | Bridle Trails Winter Running FestivalUnited States | 50km | 6:09:30 h | 8.119 | 49/55 |
| 2016-09-24 | 50km | 7:37:32 h | 6.557 | 41/60 | |
| 2019-07-06 | 50km | 11:18:00 h | 4.425 | 59/65 | |
| 2022-01-08 | 50km | 6:48:30 h | 7.344 | 38/44 | |
| 2022-04-23 | 50mi | 13:30:00 h | 5.961 | 35/35 | |
| 2022-05-07 | 50km | 8:54:10 h | 5.616 | 155/177 | |
| 2022-06-11 | 100km | 19:42:00 h | 5.076 | 8/9 | |
| 2022-07-22 | 100mi | 33:29:16 h | 4.806 | 109/126 | |
| 2023-01-21 | 50km | 7:32:30 h | 6.630 | 56/67 | |
| 2023-03-24 | 50mi | 12:47:34 h | 6.290 | 73/136 | |
| 2023-03-25 | 55km | 9:01:29 h | 6.094 | 57/61 | |
| 2023-05-06 | 50km | 7:29:53 h | 6.668 | 88/169 | |
| 2024-01-20 | 50km | 7:33:49 h | 6.611 | 50/54 | |
| 2024-03-22 | 100km | 17:57:52 h | 5.567 | 28/34 | |
| 2024-04-20 | 50mi | 13:19:21 h | 6.040 | 36/39 | |
| 2024-05-04 | 50km | 7:41:38 h | 6.499 | 133/183 | |
| 2024-09-14 | 100mi | 34:50:00 h | 4.620 | 25/25 | |
| 2025-01-18 | 50km | 7:18:13 h | 6.846 | 68/78 | |
| 2025-03-21 | 50mi | 13:18:15 h | 6.048 | 83/129 | |
| 2025-05-03 | 50km | 7:17:33 h | 6.856 | 118/175 |
Showing 1–50 of 55